Time;durP1;ratioP1;P1;durP2;ratioP2;P2;SDS_P1;SDS_P2;PMS_P1;PMS_P2;Temp;Humidity;BMP_temperature;BMP_pressure;BME280_temperature;BME280_humidity;BME280_pressure;Samples;Min_cycle;Max_cycle;Signal;HPM_P1;HPM_P2
2023/08/06 00:00:31;;;;;;;5.82;5.32;;;;;;;22.05;90.97;97857.19;4913661;28;104611;-58
2023/08/06 00:02:59;;;;;;;4.20;3.90;;;;;;;22.94;87.63;97863.91;4917791;28;103860;-58
2023/08/06 00:05:28;;;;;;;4.32;4.03;;;;;;;23.17;85.12;97861.59;4914939;28;102819;-58
2023/08/06 00:07:56;;;;;;;3.78;3.47;;;;;;;23.35;84.21;97851.00;4916972;28;102747;-58
2023/08/06 00:10:25;;;;;;;4.10;3.70;;;;;;;23.49;83.13;97849.97;4914765;28;103453;-58
2023/08/06 00:12:53;;;;;;;4.25;3.88;;;;;;;23.48;82.48;97842.91;4913832;28;103334;-58
2023/08/06 00:15:21;;;;;;;4.60;4.20;;;;;;;23.56;82.56;97837.28;4914319;28;102752;-58
2023/08/06 00:17:49;;;;;;;5.07;3.83;;;;;;;23.45;82.00;97843.31;4916099;28;104181;-58
2023/08/06 00:20:17;;;;;;;6.70;6.03;;;;;;;22.58;86.10;97847.34;4916189;28;103381;-58
2023/08/06 00:22:45;;;;;;;4.33;4.00;;;;;;;23.14;84.49;97831.56;4897512;28;103680;-58
2023/08/06 00:25:13;;;;;;;4.50;4.10;;;;;;;23.44;82.62;97844.34;4897383;28;103162;-58
2023/08/06 00:27:42;;;;;;;5.22;4.78;;;;;;;23.22;82.68;97845.63;4915228;28;104006;-58
2023/08/06 00:30:11;;;;;;;3.80;3.50;;;;;;;23.47;81.02;97841.25;4897827;28;104226;-58
2023/08/06 00:32:39;;;;;;;4.13;3.83;;;;;;;23.44;81.22;97838.97;4915854;28;103216;-58
2023/08/06 00:35:08;;;;;;;4.77;4.37;;;;;;;23.52;80.28;97844.13;4913313;28;102682;-58
2023/08/06 00:37:38;;;;;;;5.20;4.70;;;;;;;22.85;82.93;97843.66;4916299;28;104212;-58
2023/08/06 00:40:07;;;;;;;7.03;6.43;;;;;;;22.20;84.79;97833.66;4912295;28;103233;-58
2023/08/06 00:42:35;;;;;;;5.57;5.07;;;;;;;22.97;82.85;97836.56;4914072;28;103446;-58
2023/08/06 00:45:06;;;;;;;7.03;6.32;;;;;;;22.18;83.85;97839.22;4898513;28;102749;-58
2023/08/06 00:47:34;;;;;;;4.57;4.18;;;;;;;22.86;82.94;97829.13;4911904;28;103906;-59
2023/08/06 00:50:02;;;;;;;5.90;5.32;;;;;;;22.96;82.11;97834.94;4897071;28;104284;-58
2023/08/06 00:52:30;;;;;;;4.30;4.00;;;;;;;22.94;80.75;97828.91;4917111;28;103319;-58
2023/08/06 00:54:58;;;;;;;4.80;4.40;;;;;;;22.61;84.17;97833.47;4899829;28;102727;-60
2023/08/06 00:57:28;;;;;;;5.03;4.63;;;;;;;22.78;83.15;97826.66;4912627;28;104255;-61
2023/08/06 00:59:57;;;;;;;6.85;6.20;;;;;;;21.90;84.89;97823.25;4898556;28;104379;-61
2023/08/06 01:02:26;;;;;;;6.90;6.30;;;;;;;21.16;89.95;97819.63;4889564;28;103303;-61
2023/08/06 01:04:54;;;;;;;4.50;4.20;;;;;;;22.03;86.49;97811.69;4895208;28;103436;-61
2023/08/06 01:07:34;;;;;;;3.50;3.30;;;;;;;22.63;84.41;97813.38;4913804;28;105348;-61
2023/08/06 01:10:20;;;;;;;4.18;3.78;;;;;;;22.85;82.61;97805.94;4915508;28;104133;-61
2023/08/06 01:12:56;;;;;;;5.93;5.40;;;;;;;21.71;84.73;97809.72;4915741;28;104144;-61
2023/08/06 01:15:28;;;;;;;4.13;3.83;;;;;;;22.53;83.13;97802.22;4897925;28;102823;-61
2023/08/06 01:17:59;;;;;;;3.92;3.38;;;;;;;22.76;81.95;97796.44;4915201;28;103917;-61
2023/08/06 01:20:30;;;;;;;6.93;5.97;;;;;;;21.44;84.58;97806.13;4895349;28;103328;-60
2023/08/06 01:22:58;;;;;;;5.20;4.70;;;;;;;21.91;85.31;97800.72;4914230;28;102964;-61
2023/08/06 01:25:32;;;;;;;6.17;5.60;;;;;;;21.19;87.89;97803.09;4911102;28;103015;-61
2023/08/06 01:28:06;;;;;;;5.55;5.05;;;;;;;21.52;86.27;97802.41;4896344;28;102759;-60
2023/08/06 01:30:40;;;;;;;5.80;5.30;;;;;;;21.42;87.60;97796.59;4890416;28;103152;-61
2023/08/06 01:33:14;;;;;;;5.43;4.93;;;;;;;21.92;85.59;97801.53;4915220;28;103336;-60
2023/08/06 01:35:43;;;;;;;4.03;3.72;;;;;;;22.17;84.02;97802.63;4901014;28;102652;-58
2023/08/06 01:38:11;;;;;;;5.03;4.63;;;;;;;22.34;83.02;97798.47;4912242;28;104068;-58
2023/08/06 01:40:39;;;;;;;5.45;4.95;;;;;;;22.43;83.35;97797.22;4911566;28;104506;-58
2023/08/06 01:43:08;;;;;;;3.92;3.63;;;;;;;22.50;82.91;97790.00;4915825;28;103243;-59
2023/08/06 01:45:36;;;;;;;5.03;4.63;;;;;;;22.60;82.10;97784.19;4912406;28;102969;-58
2023/08/06 01:48:04;;;;;;;4.72;4.32;;;;;;;22.16;84.09;97792.06;4896521;28;103910;-58
2023/08/06 01:50:32;;;;;;;4.13;3.83;;;;;;;22.36;83.13;97787.50;4894014;28;104250;-58
2023/08/06 01:53:02;;;;;;;5.28;4.03;;;;;;;22.21;82.96;97782.31;4910697;28;103196;-58
2023/08/06 01:55:30;;;;;;;4.18;3.00;;;;;;;22.15;82.38;97771.56;4915707;28;104621;-58
2023/08/06 01:57:59;;;;;;;2.90;2.70;;;;;;;22.29;81.24;97778.59;4907954;28;104092;-58
2023/08/06 02:00:27;;;;;;;2.58;2.38;;;;;;;22.11;82.01;97775.72;4896609;28;104154;-61
2023/08/06 02:02:55;;;;;;;2.83;2.63;;;;;;;22.03;81.45;97768.69;4913891;28;103533;-61
2023/08/06 02:05:25;;;;;;;2.42;2.20;;;;;;;21.79;82.13;97766.50;4914704;28;102665;-58
2023/08/06 02:07:53;;;;;;;2.70;2.50;;;;;;;22.15;81.11;97766.19;4898805;28;103717;-58
2023/08/06 02:10:22;;;;;;;3.08;2.53;;;;;;;22.12;80.13;97762.03;4907806;28;104119;-58
2023/08/06 02:12:50;;;;;;;3.63;2.60;;;;;;;21.76;80.77;97758.84;4914236;28;104070;-58
2023/08/06 02:15:18;;;;;;;3.00;2.30;;;;;;;21.96;80.19;97751.69;4908990;28;102694;-58
2023/08/06 02:17:46;;;;;;;3.10;2.63;;;;;;;22.10;79.42;97758.75;4914845;28;103670;-58
2023/08/06 02:20:14;;;;;;;2.72;2.53;;;;;;;21.68;79.41;97746.44;4910334;28;103190;-59
2023/08/06 02:22:42;;;;;;;2.35;2.00;;;;;;;21.79;79.13;97739.63;4897931;28;103288;-58
2023/08/06 02:25:10;;;;;;;1.90;1.77;;;;;;;21.93;78.78;97733.28;4895903;28;102655;-57
2023/08/06 02:27:39;;;;;;;2.40;2.20;;;;;;;21.76;78.94;97734.66;4912151;28;103966;-58
2023/08/06 02:30:08;;;;;;;2.85;2.25;;;;;;;21.89;79.00;97738.22;4896545;28;104209;-58
2023/08/06 02:32:39;;;;;;;2.20;2.00;;;;;;;21.94;78.49;97732.25;4915902;28;103309;-58
2023/08/06 02:35:08;;;;;;;2.90;2.60;;;;;;;21.82;78.50;97739.22;4911040;28;103043;-58
2023/08/06 02:37:37;;;;;;;2.10;2.00;;;;;;;22.10;77.47;97733.69;4892296;28;103214;-57
2023/08/06 02:40:05;;;;;;;3.85;2.90;;;;;;;20.87;80.40;97723.19;4897371;28;103448;-58
2023/08/06 02:42:33;;;;;;;3.17;2.30;;;;;;;21.49;81.09;97724.91;4914411;28;104496;-57
2023/08/06 02:45:05;;;;;;;2.72;2.42;;;;;;;21.39;79.26;97728.78;4900885;28;102669;-58
2023/08/06 02:47:32;;;;;;;1.92;1.83;;;;;;;21.74;79.26;97720.59;4914819;28;104007;-58
2023/08/06 02:50:00;;;;;;;2.80;2.38;;;;;;;21.78;78.83;97719.19;4915370;28;103450;-58
2023/08/06 02:52:31;;;;;;;2.40;2.20;;;;;;;21.83;78.11;97719.38;4914616;28;105785;-58
2023/08/06 02:55:00;;;;;;;2.43;2.10;;;;;;;21.80;78.07;97709.03;4900038;28;102685;-57
2023/08/06 02:57:30;;;;;;;2.47;1.98;;;;;;;21.63;78.63;97707.78;4898658;28;102690;-58
2023/08/06 03:00:00;;;;;;;2.67;2.00;;;;;;;21.37;78.66;97693.25;4918004;28;103683;-58
2023/08/06 03:02:31;;;;;;;2.72;2.30;;;;;;;21.53;78.22;97693.91;4898597;28;105698;-58
2023/08/06 03:05:06;;;;;;;2.03;1.83;;;;;;;21.65;78.39;97700.31;4895423;28;102768;-57
2023/08/06 03:07:37;;;;;;;2.40;2.20;;;;;;;21.66;77.76;97696.63;4910998;28;102901;-58
2023/08/06 03:10:13;;;;;;;2.40;2.20;;;;;;;21.44;78.02;97693.28;4900048;28;105437;-58
2023/08/06 03:12:41;;;;;;;2.50;2.27;;;;;;;21.34;79.18;97693.66;4913672;28;103758;-58
2023/08/06 03:15:10;;;;;;;2.38;2.17;;;;;;;21.51;79.29;97694.09;4908902;28;102818;-58
2023/08/06 03:17:40;;;;;;;3.00;2.30;;;;;;;21.64;78.21;97698.69;4895237;28;104011;-58
2023/08/06 03:20:11;;;;;;;2.72;2.53;;;;;;;21.16;80.90;97689.88;4910850;28;104221;-58
2023/08/06 03:22:40;;;;;;;3.03;2.73;;;;;;;21.07;80.93;97697.28;4898109;28;105947;-58
2023/08/06 03:25:08;;;;;;;2.40;2.20;;;;;;;21.31;80.40;97688.69;4900111;28;102807;-58
2023/08/06 03:27:37;;;;;;;2.80;2.47;;;;;;;21.32;79.11;97690.34;4898738;28;103750;-58
2023/08/06 03:30:07;;;;;;;3.03;2.45;;;;;;;21.23;80.18;97699.63;4913247;28;104205;-58
2023/08/06 03:32:40;;;;;;;3.53;3.20;;;;;;;20.26;83.59;97691.84;4900215;28;105110;-58
2023/08/06 03:35:09;;;;;;;2.10;2.00;;;;;;;21.18;82.95;97698.56;4916747;28;102645;-58
2023/08/06 03:37:37;;;;;;;3.58;3.22;;;;;;;20.05;86.94;97698.88;4899975;28;102768;-57
2023/08/06 03:40:07;;;;;;;3.95;2.70;;;;;;;20.68;83.40;97702.44;4894902;28;105323;-58
2023/08/06 03:42:35;;;;;;;3.45;2.80;;;;;;;20.78;83.29;97698.34;4916586;28;103267;-58
2023/08/06 03:45:04;;;;;;;3.28;2.60;;;;;;;20.74;84.78;97697.09;4897515;28;102941;-58
2023/08/06 03:47:33;;;;;;;2.58;2.38;;;;;;;21.28;82.55;97697.16;4899299;28;104120;-58
2023/08/06 03:50:04;;;;;;;2.53;2.22;;;;;;;20.89;82.50;97696.97;4896794;28;105171;-59
2023/08/06 03:52:32;;;;;;;2.33;2.13;;;;;;;20.99;82.07;97691.22;4915109;28;103261;-58
2023/08/06 03:55:00;;;;;;;2.33;2.15;;;;;;;21.06;81.23;97698.28;4898657;28;102785;-58
2023/08/06 03:57:28;;;;;;;2.73;2.20;;;;;;;21.30;80.08;97697.78;4899285;28;103968;-58
2023/08/06 03:59:56;;;;;;;2.17;1.73;;;;;;;21.42;79.74;97697.19;4897776;28;104384;-57
2023/08/06 04:02:26;;;;;;;1.75;1.65;;;;;;;21.59;80.27;97701.13;4897701;28;104989;-58
2023/08/06 04:04:54;;;;;;;2.22;2.03;;;;;;;21.69;79.63;97701.59;4914565;28;102740;-58
2023/08/06 04:07:23;;;;;;;2.10;1.83;;;;;;;21.72;79.27;97701.19;4917329;28;102786;-58
2023/08/06 04:09:56;;;;;;;2.45;2.25;;;;;;;21.69;79.23;97706.97;4915080;28;104113;-58
2023/08/06 04:12:25;;;;;;;2.53;2.00;;;;;;;21.58;79.04;97704.88;4914400;28;103327;-58
2023/08/06 04:14:54;;;;;;;2.70;2.00;;;;;;;21.65;79.09;97708.38;4917770;28;103144;-58
2023/08/06 04:17:23;;;;;;;2.13;1.92;;;;;;;21.70;78.84;97708.59;4916540;28;103782;-58
2023/08/06 04:19:53;;;;;;;2.78;2.28;;;;;;;21.53;80.58;97710.03;4897521;28;104059;-58
2023/08/06 04:22:21;;;;;;;2.47;2.03;;;;;;;21.70;79.92;97708.59;4894975;28;103620;-57
2023/08/06 04:24:51;;;;;;;3.50;2.50;;;;;;;21.20;81.02;97713.44;4895356;28;102817;-58
2023/08/06 04:27:20;;;;;;;3.38;2.58;;;;;;;21.15;82.21;97709.69;4899007;28;104131;-58
2023/08/06 04:29:49;;;;;;;2.40;2.10;;;;;;;20.98;83.66;97706.50;4897756;28;105978;-58
2023/08/06 04:32:19;;;;;;;2.10;1.90;;;;;;;21.45;82.10;97705.66;4899184;28;105459;-58
2023/08/06 04:34:51;;;;;;;3.13;2.20;;;;;;;21.21;81.80;97714.28;4902204;28;102732;-58
2023/08/06 04:37:19;;;;;;;2.20;1.80;;;;;;;21.57;81.75;97713.97;4900216;28;104236;-58
2023/08/06 04:39:47;;;;;;;1.70;1.60;;;;;;;21.76;80.79;97719.38;4897914;28;104383;-58
2023/08/06 04:42:17;;;;;;;1.80;1.70;;;;;;;21.81;80.75;97708.81;4916232;28;105497;-58
2023/08/06 04:44:45;;;;;;;2.70;2.00;;;;;;;21.65;81.87;97700.31;4895675;28;102651;-56
2023/08/06 04:47:13;;;;;;;2.08;1.90;;;;;;;21.89;80.90;97699.78;4896476;28;104417;-58
2023/08/06 04:49:42;;;;;;;3.67;2.47;;;;;;;21.39;82.43;97711.84;4913501;28;103275;-58
2023/08/06 04:52:10;;;;;;;2.58;2.38;;;;;;;21.36;82.57;97729.19;4915352;28;103265;-58
2023/08/06 04:59:05;;;;;;;4.13;2.22;;;;;;;21.37;82.19;97720.13;4915412;28;102747;-58
2023/08/06 05:01:33;;;;;;;2.80;2.20;;;;;;;21.37;82.68;97725.47;4914624;28;103245;-58
2023/08/06 05:04:01;;;;;;;2.60;2.28;;;;;;;21.21;83.29;97731.22;4906279;28;103128;-58
2023/08/06 05:06:29;;;;;;;3.10;2.30;;;;;;;20.53;86.86;97731.22;4915959;28;102695;-58
2023/08/06 05:08:57;;;;;;;3.60;2.60;;;;;;;20.01;89.03;97727.13;4916725;28;104075;-58
2023/08/06 05:11:25;;;;;;;3.40;2.50;;;;;;;20.12;89.02;97729.28;4915752;28;103533;-58
2023/08/06 05:13:53;;;;;;;3.40;2.30;;;;;;;20.98;86.45;97727.97;4895794;28;104165;-58
2023/08/06 05:16:22;;;;;;;3.38;1.98;;;;;;;21.34;84.88;97723.19;4913418;28;102957;-58
2023/08/06 05:18:50;;;;;;;2.67;1.80;;;;;;;21.60;84.48;97721.63;4897608;28;104138;-57
2023/08/06 05:21:20;;;;;;;2.92;2.25;;;;;;;21.74;84.03;97726.81;4913675;28;104061;-58
2023/08/06 05:23:48;;;;;;;2.42;2.20;;;;;;;21.89;82.74;97723.97;4896691;28;104258;-58
2023/08/06 05:26:18;;;;;;;2.07;1.90;;;;;;;22.04;82.08;97716.53;4915325;28;103221;-57
2023/08/06 05:28:46;;;;;;;2.10;1.85;;;;;;;22.14;81.38;97727.72;4916398;28;102783;-57
2023/08/06 05:31:14;;;;;;;2.10;1.80;;;;;;;22.34;80.46;97723.13;4915369;28;103743;-58
2023/08/06 05:33:43;;;;;;;2.95;1.70;;;;;;;22.40;79.67;97725.00;4914648;28;104076;-58
2023/08/06 05:36:11;;;;;;;3.05;1.73;;;;;;;22.33;80.19;97726.03;4912193;28;102690;-58
2023/08/06 05:38:39;;;;;;;2.58;1.80;;;;;;;21.83;81.56;97725.59;4913162;28;102700;-58
2023/08/06 05:41:07;;;;;;;1.70;1.60;;;;;;;21.76;81.44;97729.28;4910714;28;103693;-57
2023/08/06 05:43:35;;;;;;;2.40;1.65;;;;;;;21.24;83.32;97730.81;4914314;28;103294;-58
2023/08/06 05:46:04;;;;;;;2.23;1.93;;;;;;;21.64;81.93;97726.38;4912777;28;102981;-59
2023/08/06 05:48:32;;;;;;;2.28;1.70;;;;;;;22.00;80.62;97731.44;4913110;28;103198;-59
2023/08/06 05:51:01;;;;;;;1.77;1.50;;;;;;;22.06;80.06;97730.63;4917171;28;103358;-59
2023/08/06 05:53:29;;;;;;;2.30;2.00;;;;;;;21.59;80.84;97728.00;4898018;28;104152;-59
2023/08/06 05:55:57;;;;;;;1.55;1.40;;;;;;;22.05;81.06;97728.94;4887697;28;104119;-59
2023/08/06 05:58:29;;;;;;;2.20;1.80;;;;;;;21.41;84.12;97731.28;4899714;28;103885;-59
2023/08/06 06:05:21;;;;;;;1.55;1.20;;;;;;;21.75;81.23;97738.41;4866004;28;103628;-59
2023/08/06 06:07:51;;;;;;;2.60;1.20;;;;;;;21.13;84.54;97739.47;4879321;28;103264;-59
2023/08/06 06:10:19;;;;;;;2.13;1.23;;;;;;;21.29;82.85;97743.63;4887154;28;103097;-61
2023/08/06 06:12:47;;;;;;;1.20;1.10;;;;;;;21.57;82.86;97751.56;4893445;28;103773;-59
2023/08/06 06:15:15;;;;;;;2.75;1.08;;;;;;;21.11;84.71;97744.19;4906343;28;103291;-59
2023/08/06 06:17:46;;;;;;;1.70;1.17;;;;;;;20.53;85.90;97756.22;4906607;28;102731;-60
2023/08/06 06:20:14;;;;;;;1.33;1.00;;;;;;;19.99;88.55;97760.47;4908939;28;102684;-58
2023/08/06 06:22:42;;;;;;;1.50;0.90;;;;;;;20.22;88.26;97761.09;4875876;28;104215;-60
2023/08/06 06:25:12;;;;;;;1.73;0.85;;;;;;;20.36;87.82;97754.00;4892393;28;103159;-59
2023/08/06 06:27:40;;;;;;;2.57;0.80;;;;;;;20.19;87.25;97759.63;4904806;28;103020;-59
2023/08/06 06:30:09;;;;;;;2.10;0.77;;;;;;;19.98;88.14;97762.34;4906455;28;103012;-57
2023/08/06 06:32:37;;;;;;;1.95;0.80;;;;;;;20.21;88.76;97762.94;4905206;28;104392;-57
2023/08/06 06:35:08;;;;;;;1.90;1.00;;;;;;;21.01;85.41;97757.13;4907518;28;103217;-57
2023/08/06 06:37:36;;;;;;;2.70;0.80;;;;;;;20.70;86.16;97762.94;4904306;28;103355;-57
2023/08/06 06:40:05;;;;;;;2.00;0.73;;;;;;;20.34;87.42;97772.16;4902628;28;103114;-57
2023/08/06 06:42:34;;;;;;;1.60;0.90;;;;;;;20.89;85.55;97766.75;4884830;28;104455;-57
2023/08/06 06:45:07;;;;;;;1.90;0.80;;;;;;;20.53;86.35;97758.06;4888891;28;105286;-55
2023/08/06 06:47:35;;;;;;;1.20;0.73;;;;;;;20.83;83.80;97764.84;4909799;28;104064;-56
2023/08/06 06:50:03;;;;;;;1.30;0.80;;;;;;;19.92;87.83;97773.84;4898893;28;103972;-55
2023/08/06 06:52:31;;;;;;;2.93;1.00;;;;;;;20.00;86.49;97772.88;4905185;28;104510;-55
2023/08/06 06:59:26;;;;;;;2.97;0.80;;;;;;;20.44;86.63;97767.28;4906927;28;102954;-54
2023/08/06 07:01:54;;;;;;;1.45;0.80;;;;;;;20.48;86.17;97771.25;4913183;28;103817;-54
2023/08/06 07:04:23;;;;;;;1.17;0.60;;;;;;;21.05;83.83;97758.38;4918289;28;103300;-55
2023/08/06 07:06:51;;;;;;;0.90;0.60;;;;;;;20.67;84.03;97759.81;4902151;28;103206;-56
2023/08/06 07:09:19;;;;;;;1.88;0.60;;;;;;;20.85;84.46;97765.50;4912933;28;102800;-55
2023/08/06 07:11:47;;;;;;;1.83;0.60;;;;;;;20.54;84.36;97770.47;4912830;28;102900;-56
2023/08/06 07:14:15;;;;;;;1.43;0.60;;;;;;;20.35;86.80;97771.94;4913163;28;104089;-56
2023/08/06 07:16:44;;;;;;;0.98;0.60;;;;;;;19.92;87.78;97771.16;4914029;28;103249;-56
2023/08/06 07:19:13;;;;;;;1.85;0.70;;;;;;;20.50;84.85;97770.00;4911288;28;102803;-57
2023/08/06 07:21:43;;;;;;;2.17;0.60;;;;;;;20.20;86.29;97774.72;4911125;28;102992;-56
2023/08/06 07:24:11;;;;;;;1.42;0.55;;;;;;;20.47;85.56;97772.25;4909389;28;103793;-56
2023/08/06 07:26:39;;;;;;;1.10;0.70;;;;;;;20.29;85.96;97782.66;4916439;28;104324;-56
2023/08/06 07:29:07;;;;;;;1.90;0.65;;;;;;;20.24;86.09;97776.00;4915560;28;103024;-56
2023/08/06 07:31:35;;;;;;;1.40;0.70;;;;;;;20.13;87.25;97778.34;4916815;28;102633;-57
2023/08/06 07:34:04;;;;;;;1.85;0.80;;;;;;;20.61;86.37;97782.06;4913323;28;104024;-57
2023/08/06 07:36:32;;;;;;;2.10;0.65;;;;;;;19.79;88.00;97788.97;4897747;28;104370;-57
2023/08/06 07:39:00;;;;;;;0.57;0.57;;;;;;;19.75;88.98;97790.34;4916508;28;103030;-56
2023/08/06 07:41:28;;;;;;;1.02;0.57;;;;;;;20.02;87.21;97790.41;4916644;28;104067;-56
2023/08/06 07:43:56;;;;;;;0.80;0.70;;;;;;;20.76;84.89;97785.47;4902313;28;104183;-57
2023/08/06 07:46:26;;;;;;;1.23;0.75;;;;;;;21.28;83.26;97780.41;4916084;28;104232;-57
2023/08/06 07:48:54;;;;;;;0.60;0.53;;;;;;;20.78;84.25;97778.88;4917816;28;102988;-57
2023/08/06 07:51:23;;;;;;;0.88;0.52;;;;;;;21.14;83.59;97780.53;4917278;28;103947;-57
2023/08/06 07:54:09;;;;;;;0.75;0.52;;;;;;;20.51;85.87;97776.22;4914199;28;102965;-57
2023/08/06 07:56:56;;;;;;;1.00;0.57;;;;;;;20.22;87.12;97775.34;4901906;28;102985;-56
2023/08/06 07:59:24;;;;;;;0.50;0.50;;;;;;;20.42;87.13;97782.75;4915077;28;102730;-57
2023/08/06 08:01:52;;;;;;;0.55;0.40;;;;;;;20.31;88.69;97780.59;4915975;28;103979;-56
2023/08/06 08:04:20;;;;;;;0.90;0.47;;;;;;;20.89;86.44;97785.53;4915593;28;103671;-57
2023/08/06 08:06:51;;;;;;;0.68;0.43;;;;;;;20.66;86.28;97771.59;4915862;28;103244;-57
2023/08/06 08:09:19;;;;;;;0.80;0.50;;;;;;;20.83;85.91;97768.38;4915041;28;102859;-57
2023/08/06 08:11:47;;;;;;;1.10;0.50;;;;;;;21.03;84.99;97768.47;4919323;28;104003;-57
2023/08/06 08:14:15;;;;;;;0.97;0.50;;;;;;;21.05;84.93;97773.66;4917363;28;103867;-57
2023/08/06 08:16:43;;;;;;;0.63;0.40;;;;;;;21.56;82.12;97774.94;4916430;28;103273;-57
2023/08/06 08:19:11;;;;;;;0.77;0.40;;;;;;;21.43;81.13;97768.69;4915686;28;103035;-57
2023/08/06 08:21:39;;;;;;;0.88;0.40;;;;;;;21.50;80.50;97773.03;4915572;28;104168;-59
2023/08/06 08:24:09;;;;;;;0.90;0.50;;;;;;;21.59;80.61;97769.16;4916275;28;104052;-57
2023/08/06 08:26:37;;;;;;;0.30;0.30;;;;;;;21.68;79.98;97761.75;4915426;28;103588;-57
2023/08/06 08:29:04;;;;;;;0.85;0.30;;;;;;;21.68;79.88;97764.41;4916523;28;102666;-57
2023/08/06 08:31:38;;;;;;;1.30;0.45;;;;;;;21.23;81.67;97768.59;4914969;28;102898;-57
2023/08/06 08:34:06;;;;;;;1.13;0.40;;;;;;;21.09;81.92;97765.03;4914845;28;103860;-57
2023/08/06 08:36:34;;;;;;;0.60;0.40;;;;;;;21.09;82.77;97765.03;4913424;28;103248;-60
2023/08/06 08:39:03;;;;;;;1.20;0.40;;;;;;;21.37;82.92;97768.47;4899785;28;103040;-57
2023/08/06 08:41:34;;;;;;;0.30;0.30;;;;;;;21.49;79.75;97760.66;4913315;28;103656;-57
2023/08/06 08:44:03;;;;;;;0.50;0.30;;;;;;;22.21;78.08;97755.44;4912767;28;104099;-57
2023/08/06 08:46:32;;;;;;;0.43;0.30;;;;;;;22.19;78.25;97757.50;4913067;28;103604;-57
2023/08/06 08:49:03;;;;;;;0.50;0.30;;;;;;;22.35;79.49;97759.78;4918575;28;103076;-57
2023/08/06 08:51:32;;;;;;;0.30;0.30;;;;;;;22.10;78.44;97764.13;4901842;28;103035;-57
2023/08/06 09:45:33;;;;;;;0.30;0.30;;;;;;;20.85;86.40;97795.03;4907535;28;102806;-59
2023/08/06 09:48:01;;;;;;;0.40;0.30;;;;;;;20.56;87.08;97806.81;4913615;28;104183;-60
2023/08/06 09:50:32;;;;;;;0.32;0.30;;;;;;;21.43;84.60;97795.56;4919354;28;103264;-60
2023/08/06 09:53:01;;;;;;;0.32;0.32;;;;;;;21.12;85.02;97802.25;4904152;28;102780;-60
2023/08/06 09:55:28;;;;;;;0.20;0.20;;;;;;;21.31;85.65;97796.13;4919290;28;104232;-59
2023/08/06 09:57:57;;;;;;;0.50;0.20;;;;;;;21.24;84.92;97800.66;4918852;28;104063;-60
2023/08/06 10:00:29;;;;;;;0.20;0.20;;;;;;;21.93;83.00;97795.13;4918567;28;103179;-60
2023/08/06 10:03:01;;;;;;;0.47;0.30;;;;;;;21.32;84.92;97797.78;4910774;28;102974;-59
2023/08/06 10:05:30;;;;;;;0.60;0.30;;;;;;;21.28;84.76;97796.53;4915443;28;104065;-59
2023/08/06 10:08:00;;;;;;;0.50;0.50;;;;;;;21.41;85.57;97803.00;4890293;28;104427;-60
2023/08/06 10:10:30;;;;;;;0.50;0.50;;;;;;;21.34;86.31;97795.72;4919084;28;103231;-59
2023/08/06 10:13:00;;;;;;;0.33;0.30;;;;;;;20.86;87.40;97811.94;4914821;28;103634;-59
2023/08/06 10:15:34;;;;;;;0.32;0.30;;;;;;;21.38;85.28;97810.44;4918615;28;104058;-59
2023/08/06 10:18:03;;;;;;;0.80;0.40;;;;;;;21.74;82.37;97810.16;4917966;28;103285;-59
2023/08/06 10:20:35;;;;;;;0.30;0.20;;;;;;;21.83;85.72;97810.78;4917712;28;103261;-59
2023/08/06 10:23:05;;;;;;;0.25;0.20;;;;;;;21.73;82.48;97802.25;4914543;28;102748;-62
2023/08/06 10:25:34;;;;;;;0.30;0.30;;;;;;;21.40;84.40;97799.47;4893710;28;104319;-60
2023/08/06 10:28:08;;;;;;;0.22;0.22;;;;;;;20.75;85.72;97808.78;4910850;28;103325;-60
2023/08/06 10:30:43;;;;;;;0.30;0.30;;;;;;;21.48;84.75;97811.91;4917755;28;103063;-60
2023/08/06 10:33:12;;;;;;;0.73;0.73;;;;;;;21.20;84.72;97810.13;4915851;28;102675;-60
2023/08/06 10:35:44;;;;;;;20.92;18.90;;;;;;;21.60;81.80;97804.91;4914832;28;102786;-60
2023/08/06 10:38:14;;;;;;;8.93;7.10;;;;;;;22.01;82.13;97805.69;4912453;28;104098;-60
2023/08/06 10:40:50;;;;;;;2.70;1.80;;;;;;;21.14;82.44;97821.66;4910214;28;103381;-60
2023/08/06 10:43:28;;;;;;;2.28;1.52;;;;;;;21.71;80.58;97812.41;4913317;28;102788;-60
2023/08/06 10:45:57;;;;;;;1.57;1.47;;;;;;;22.01;78.62;97808.38;4916077;28;103909;-60
2023/08/06 10:48:35;;;;;;;1.10;0.40;;;;;;;22.07;80.58;97812.94;4912784;28;103477;-60
2023/08/06 10:51:05;;;;;;;0.40;0.30;;;;;;;21.97;79.13;97823.25;4910438;28;103235;-60
2023/08/06 10:53:33;;;;;;;0.40;0.40;;;;;;;21.78;78.11;97824.00;4912094;28;102847;-60
2023/08/06 10:56:01;;;;;;;0.55;0.40;;;;;;;21.39;80.75;97825.50;4914033;28;103949;-60
2023/08/06 10:58:33;;;;;;;0.32;0.30;;;;;;;21.76;80.59;97832.25;4907730;28;103268;-60
2023/08/06 11:01:01;;;;;;;0.70;0.50;;;;;;;21.55;80.17;97840.47;4912135;28;103318;-60
2023/08/06 11:03:29;;;;;;;0.70;0.40;;;;;;;20.92;82.33;97849.56;4913174;28;102718;-60
2023/08/06 11:05:58;;;;;;;1.33;0.40;;;;;;;20.81;81.69;97859.00;4910286;28;104011;-60
2023/08/06 11:08:27;;;;;;;0.30;0.30;;;;;;;20.38;83.01;97861.97;4901496;28;104040;-60
2023/08/06 11:10:55;;;;;;;0.40;0.40;;;;;;;20.61;81.32;97857.19;4916289;28;103312;-60
2023/08/06 11:13:32;;;;;;;1.20;0.57;;;;;;;21.00;79.58;97862.84;4912062;28;103968;-60
2023/08/06 11:16:02;;;;;;;1.50;0.60;;;;;;;20.78;79.79;97861.25;4897277;28;103826;-60
2023/08/06 11:18:30;;;;;;;0.80;0.60;;;;;;;21.00;79.72;97854.78;4914771;28;103600;-60
2023/08/06 11:21:01;;;;;;;0.52;0.52;;;;;;;21.71;79.31;97861.63;4900085;28;104523;-59
2023/08/06 11:23:29;;;;;;;1.25;0.65;;;;;;;21.21;80.57;97865.50;4912328;28;102701;-60
2023/08/06 11:25:57;;;;;;;0.60;0.60;;;;;;;21.08;81.52;97867.28;4900747;28;104053;-60
2023/08/06 11:28:26;;;;;;;0.50;0.50;;;;;;;21.04;79.20;97858.75;4898005;28;104274;-60
2023/08/06 11:30:55;;;;;;;0.70;0.60;;;;;;;21.19;80.89;97859.47;4916527;28;102896;-60
2023/08/06 11:33:25;;;;;;;1.00;0.70;;;;;;;20.79;80.46;97870.97;4914802;28;102700;-57
2023/08/06 11:35:54;;;;;;;0.70;0.70;;;;;;;20.99;80.05;97871.13;4911989;28;104428;-60
2023/08/06 11:38:26;;;;;;;1.30;0.80;;;;;;;20.65;80.64;97877.25;4901650;28;104270;-60
2023/08/06 11:40:54;;;;;;;1.50;0.90;;;;;;;21.33;77.08;97874.66;4916723;28;103253;-60
2023/08/06 11:43:22;;;;;;;1.15;0.80;;;;;;;20.26;79.33;97906.38;4915369;28;103070;-60
2023/08/06 11:45:53;;;;;;;1.00;0.90;;;;;;;19.85;82.05;97888.16;4913321;28;104178;-60
2023/08/06 11:48:21;;;;;;;1.23;0.93;;;;;;;20.48;80.47;97902.69;4914572;28;103253;-60
2023/08/06 11:50:49;;;;;;;1.13;0.80;;;;;;;20.30;80.41;97908.50;4914912;28;103257;-60
2023/08/06 11:53:17;;;;;;;1.20;0.93;;;;;;;20.18;82.15;97904.63;4913264;28;102862;-60
2023/08/06 11:55:47;;;;;;;1.30;1.20;;;;;;;20.20;81.36;97900.75;4914539;28;103928;-60
2023/08/06 11:58:18;;;;;;;1.15;1.00;;;;;;;20.22;82.95;97906.75;4915302;28;103439;-60
2023/08/06 12:00:46;;;;;;;1.27;1.10;;;;;;;20.33;82.89;97907.28;4916705;28;103251;-60
2023/08/06 12:03:20;;;;;;;1.48;1.02;;;;;;;20.35;83.20;97915.97;4913792;28;103117;-57
2023/08/06 12:05:48;;;;;;;1.70;1.30;;;;;;;19.89;84.48;97913.59;4913604;28;102937;-56
2023/08/06 12:08:16;;;;;;;1.45;1.30;;;;;;;19.68;86.04;97913.50;4915718;28;103295;-57
2023/08/06 12:10:46;;;;;;;1.50;1.17;;;;;;;20.11;85.14;97917.97;4915186;28;103015;-59
2023/08/06 12:13:16;;;;;;;2.05;1.40;;;;;;;19.40;87.14;97917.88;4914782;28;102727;-60
2023/08/06 12:15:45;;;;;;;2.88;1.40;;;;;;;19.42;87.67;97923.91;4912482;28;103784;-60
2023/08/06 12:18:13;;;;;;;2.45;1.60;;;;;;;19.32;88.49;97929.47;4912283;28;104558;-59
2023/08/06 12:20:41;;;;;;;2.07;1.70;;;;;;;19.52;86.92;97943.19;4915356;28;103330;-60
2023/08/06 12:23:09;;;;;;;1.58;1.48;;;;;;;20.33;83.02;97931.41;4915225;28;102745;-56
2023/08/06 12:25:37;;;;;;;2.08;1.73;;;;;;;19.76;87.17;97945.56;4914548;28;102996;-60
2023/08/06 12:28:07;;;;;;;3.53;2.35;;;;;;;19.70;85.53;97932.09;4911675;28;104238;-56
2023/08/06 12:30:37;;;;;;;3.30;2.33;;;;;;;20.17;83.86;97940.50;4882777;28;104067;-56
2023/08/06 12:33:05;;;;;;;2.70;2.40;;;;;;;19.85;84.31;97952.50;4903095;28;102917;-57
2023/08/06 12:35:33;;;;;;;2.00;1.80;;;;;;;19.06;85.23;97945.13;4911756;28;103784;-56
2023/08/06 12:38:01;;;;;;;2.27;1.70;;;;;;;19.85;82.36;97949.81;4895142;28;105415;-57